sensor_id;sensor_type;location;lat;lon;timestamp;P1;durP1;ratioP1;P2;durP2;ratioP2
68315;SDS011;55508;54.368;18.406;2023-11-21T00:02:21;12.38;;;9.23;;
68315;SDS011;55508;54.368;18.406;2023-11-21T00:04:48;12.02;;;9.52;;
68315;SDS011;55508;54.368;18.406;2023-11-21T00:07:16;10.43;;;9.00;;
68315;SDS011;55508;54.368;18.406;2023-11-21T00:09:43;11.15;;;8.63;;
68315;SDS011;55508;54.368;18.406;2023-11-21T00:12:10;12.15;;;8.85;;
68315;SDS011;55508;54.368;18.406;2023-11-21T00:14:37;12.25;;;8.60;;
68315;SDS011;55508;54.368;18.406;2023-11-21T00:17:05;14.18;;;8.95;;
68315;SDS011;55508;54.368;18.406;2023-11-21T00:19:33;13.05;;;9.32;;
68315;SDS011;55508;54.368;18.406;2023-11-21T00:22:01;10.32;;;8.32;;
68315;SDS011;55508;54.368;18.406;2023-11-21T00:24:28;13.38;;;8.55;;
68315;SDS011;55508;54.368;18.406;2023-11-21T00:26:55;14.38;;;9.10;;
68315;SDS011;55508;54.368;18.406;2023-11-21T00:29:22;9.40;;;7.70;;
68315;SDS011;55508;54.368;18.406;2023-11-21T00:31:50;9.75;;;8.30;;
68315;SDS011;55508;54.368;18.406;2023-11-21T00:34:17;9.93;;;7.70;;
68315;SDS011;55508;54.368;18.406;2023-11-21T00:36:44;10.55;;;7.75;;
68315;SDS011;55508;54.368;18.406;2023-11-21T00:39:11;8.52;;;7.25;;
68315;SDS011;55508;54.368;18.406;2023-11-21T00:41:39;9.02;;;7.50;;
68315;SDS011;55508;54.368;18.406;2023-11-21T00:44:06;8.95;;;7.38;;
68315;SDS011;55508;54.368;18.406;2023-11-21T00:46:33;8.23;;;7.32;;
68315;SDS011;55508;54.368;18.406;2023-11-21T00:49:00;8.55;;;7.38;;
68315;SDS011;55508;54.368;18.406;2023-11-21T00:51:28;8.13;;;7.03;;
68315;SDS011;55508;54.368;18.406;2023-11-21T00:53:55;8.38;;;6.85;;
68315;SDS011;55508;54.368;18.406;2023-11-21T00:56:22;7.13;;;6.53;;
68315;SDS011;55508;54.368;18.406;2023-11-21T00:58:49;7.88;;;7.07;;
68315;SDS011;55508;54.368;18.406;2023-11-21T01:01:19;8.70;;;6.20;;
68315;SDS011;55508;54.368;18.406;2023-11-21T01:03:47;7.35;;;6.65;;
68315;SDS011;55508;54.368;18.406;2023-11-21T01:06:14;7.88;;;6.15;;
68315;SDS011;55508;54.368;18.406;2023-11-21T01:08:43;8.10;;;6.65;;
68315;SDS011;55508;54.368;18.406;2023-11-21T01:11:11;8.13;;;6.95;;
68315;SDS011;55508;54.368;18.406;2023-11-21T01:13:42;6.82;;;6.20;;
68315;SDS011;55508;54.368;18.406;2023-11-21T01:16:09;7.70;;;6.95;;
68315;SDS011;55508;54.368;18.406;2023-11-21T01:18:36;7.30;;;6.60;;
68315;SDS011;55508;54.368;18.406;2023-11-21T01:21:03;7.18;;;6.45;;
68315;SDS011;55508;54.368;18.406;2023-11-21T01:23:30;7.25;;;6.55;;
68315;SDS011;55508;54.368;18.406;2023-11-21T01:25:58;7.47;;;6.78;;
68315;SDS011;55508;54.368;18.406;2023-11-21T01:28:25;7.32;;;6.55;;
68315;SDS011;55508;54.368;18.406;2023-11-21T01:30:53;8.93;;;7.03;;
68315;SDS011;55508;54.368;18.406;2023-11-21T01:33:23;7.20;;;6.47;;
68315;SDS011;55508;54.368;18.406;2023-11-21T01:35:51;6.75;;;6.22;;
68315;SDS011;55508;54.368;18.406;2023-11-21T01:38:21;7.00;;;6.30;;
68315;SDS011;55508;54.368;18.406;2023-11-21T01:40:48;7.88;;;6.55;;
68315;SDS011;55508;54.368;18.406;2023-11-21T01:43:16;9.55;;;6.68;;
68315;SDS011;55508;54.368;18.406;2023-11-21T01:45:43;7.43;;;6.65;;
68315;SDS011;55508;54.368;18.406;2023-11-21T01:48:11;8.48;;;6.40;;
68315;SDS011;55508;54.368;18.406;2023-11-21T01:50:39;7.20;;;6.28;;
68315;SDS011;55508;54.368;18.406;2023-11-21T01:53:07;6.75;;;6.15;;
68315;SDS011;55508;54.368;18.406;2023-11-21T01:55:34;7.40;;;6.70;;
68315;SDS011;55508;54.368;18.406;2023-11-21T01:58:02;8.10;;;6.50;;
68315;SDS011;55508;54.368;18.406;2023-11-21T02:00:29;9.43;;;7.57;;
68315;SDS011;55508;54.368;18.406;2023-11-21T02:02:57;12.27;;;8.80;;
68315;SDS011;55508;54.368;18.406;2023-11-21T02:05:26;8.40;;;6.82;;
68315;SDS011;55508;54.368;18.406;2023-11-21T02:07:53;7.10;;;6.40;;
68315;SDS011;55508;54.368;18.406;2023-11-21T02:10:20;7.35;;;6.43;;
68315;SDS011;55508;54.368;18.406;2023-11-21T02:12:51;7.93;;;6.40;;
68315;SDS011;55508;54.368;18.406;2023-11-21T02:15:18;7.55;;;6.40;;
68315;SDS011;55508;54.368;18.406;2023-11-21T02:17:50;7.20;;;6.50;;
68315;SDS011;55508;54.368;18.406;2023-11-21T02:22:52;6.70;;;6.10;;
68315;SDS011;55508;54.368;18.406;2023-11-21T02:25:29;8.13;;;6.32;;
68315;SDS011;55508;54.368;18.406;2023-11-21T02:27:58;8.20;;;6.40;;
68315;SDS011;55508;54.368;18.406;2023-11-21T02:30:27;6.95;;;6.30;;
68315;SDS011;55508;54.368;18.406;2023-11-21T02:32:55;6.30;;;5.70;;
68315;SDS011;55508;54.368;18.406;2023-11-21T02:35:24;7.80;;;6.38;;
68315;SDS011;55508;54.368;18.406;2023-11-21T02:37:55;7.55;;;6.30;;
68315;SDS011;55508;54.368;18.406;2023-11-21T02:40:23;6.97;;;6.38;;
68315;SDS011;55508;54.368;18.406;2023-11-21T02:42:52;7.78;;;5.70;;
68315;SDS011;55508;54.368;18.406;2023-11-21T02:45:19;5.75;;;5.18;;
68315;SDS011;55508;54.368;18.406;2023-11-21T02:50:20;6.90;;;5.03;;
68315;SDS011;55508;54.368;18.406;2023-11-21T02:52:50;5.85;;;5.35;;
68315;SDS011;55508;54.368;18.406;2023-11-21T02:55:19;6.25;;;5.65;;
68315;SDS011;55508;54.368;18.406;2023-11-21T02:57:46;6.75;;;5.75;;
68315;SDS011;55508;54.368;18.406;2023-11-21T03:00:13;6.85;;;6.25;;
68315;SDS011;55508;54.368;18.406;2023-11-21T03:02:42;6.30;;;5.70;;
68315;SDS011;55508;54.368;18.406;2023-11-21T03:05:10;6.63;;;5.93;;
68315;SDS011;55508;54.368;18.406;2023-11-21T03:07:38;6.20;;;5.60;;
68315;SDS011;55508;54.368;18.406;2023-11-21T03:10:06;5.75;;;5.15;;
68315;SDS011;55508;54.368;18.406;2023-11-21T03:12:39;5.45;;;4.95;;
68315;SDS011;55508;54.368;18.406;2023-11-21T03:15:07;5.70;;;5.20;;
68315;SDS011;55508;54.368;18.406;2023-11-21T03:17:35;7.07;;;5.32;;
68315;SDS011;55508;54.368;18.406;2023-11-21T03:20:04;6.20;;;5.60;;
68315;SDS011;55508;54.368;18.406;2023-11-21T03:22:31;5.65;;;5.15;;
68315;SDS011;55508;54.368;18.406;2023-11-21T03:25:00;5.70;;;5.20;;
68315;SDS011;55508;54.368;18.406;2023-11-21T03:27:27;6.15;;;5.55;;
68315;SDS011;55508;54.368;18.406;2023-11-21T03:29:54;8.15;;;5.90;;
68315;SDS011;55508;54.368;18.406;2023-11-21T03:32:22;11.20;;;6.50;;
68315;SDS011;55508;54.368;18.406;2023-11-21T03:34:54;41.30;;;19.10;;
68315;SDS011;55508;54.368;18.406;2023-11-21T03:37:23;43.83;;;20.90;;
68315;SDS011;55508;54.368;18.406;2023-11-21T03:39:51;20.85;;;10.85;;
68315;SDS011;55508;54.368;18.406;2023-11-21T03:42:18;7.28;;;5.75;;
68315;SDS011;55508;54.368;18.406;2023-11-21T03:44:45;8.50;;;7.47;;
68315;SDS011;55508;54.368;18.406;2023-11-21T03:47:13;9.23;;;5.80;;
68315;SDS011;55508;54.368;18.406;2023-11-21T03:49:40;6.80;;;5.47;;
68315;SDS011;55508;54.368;18.406;2023-11-21T03:52:07;5.60;;;5.10;;
68315;SDS011;55508;54.368;18.406;2023-11-21T03:54:34;6.03;;;5.25;;
68315;SDS011;55508;54.368;18.406;2023-11-21T03:57:01;5.28;;;4.72;;
68315;SDS011;55508;54.368;18.406;2023-11-21T03:59:29;6.60;;;5.25;;
68315;SDS011;55508;54.368;18.406;2023-11-21T04:01:56;5.63;;;5.07;;
68315;SDS011;55508;54.368;18.406;2023-11-21T04:04:23;6.90;;;5.90;;
68315;SDS011;55508;54.368;18.406;2023-11-21T04:06:50;8.25;;;5.55;;
68315;SDS011;55508;54.368;18.406;2023-11-21T04:09:20;5.75;;;4.95;;
68315;SDS011;55508;54.368;18.406;2023-11-21T04:11:53;6.20;;;5.60;;
68315;SDS011;55508;54.368;18.406;2023-11-21T04:14:20;5.70;;;4.95;;
68315;SDS011;55508;54.368;18.406;2023-11-21T04:16:47;5.00;;;4.60;;
68315;SDS011;55508;54.368;18.406;2023-11-21T04:19:15;6.88;;;5.20;;
68315;SDS011;55508;54.368;18.406;2023-11-21T04:21:42;5.75;;;5.15;;
68315;SDS011;55508;54.368;18.406;2023-11-21T04:24:09;5.78;;;5.28;;
68315;SDS011;55508;54.368;18.406;2023-11-21T04:26:37;6.38;;;5.78;;
68315;SDS011;55508;54.368;18.406;2023-11-21T04:29:04;6.40;;;5.60;;
68315;SDS011;55508;54.368;18.406;2023-11-21T04:31:31;7.63;;;6.18;;
68315;SDS011;55508;54.368;18.406;2023-11-21T04:33:58;7.72;;;6.07;;
68315;SDS011;55508;54.368;18.406;2023-11-21T04:36:26;11.23;;;6.05;;
68315;SDS011;55508;54.368;18.406;2023-11-21T04:38:53;8.00;;;5.95;;
68315;SDS011;55508;54.368;18.406;2023-11-21T04:41:20;7.88;;;6.38;;
68315;SDS011;55508;54.368;18.406;2023-11-21T04:43:47;7.00;;;6.18;;
68315;SDS011;55508;54.368;18.406;2023-11-21T04:46:14;6.68;;;6.03;;
68315;SDS011;55508;54.368;18.406;2023-11-21T04:48:41;7.15;;;6.43;;
68315;SDS011;55508;54.368;18.406;2023-11-21T04:51:08;8.25;;;5.90;;
68315;SDS011;55508;54.368;18.406;2023-11-21T04:53:35;17.35;;;11.50;;
68315;SDS011;55508;54.368;18.406;2023-11-21T04:56:02;28.48;;;18.33;;
68315;SDS011;55508;54.368;18.406;2023-11-21T04:58:29;19.73;;;12.55;;
68315;SDS011;55508;54.368;18.406;2023-11-21T05:01:00;14.53;;;8.23;;
68315;SDS011;55508;54.368;18.406;2023-11-21T05:03:30;11.20;;;8.23;;
68315;SDS011;55508;54.368;18.406;2023-11-21T05:05:57;8.18;;;6.60;;
68315;SDS011;55508;54.368;18.406;2023-11-21T05:08:24;6.93;;;5.97;;
68315;SDS011;55508;54.368;18.406;2023-11-21T05:10:52;8.30;;;6.40;;
68315;SDS011;55508;54.368;18.406;2023-11-21T05:13:20;8.20;;;6.38;;
68315;SDS011;55508;54.368;18.406;2023-11-21T05:15:47;8.10;;;6.63;;
68315;SDS011;55508;54.368;18.406;2023-11-21T05:18:14;9.82;;;7.13;;
68315;SDS011;55508;54.368;18.406;2023-11-21T05:20:41;10.32;;;7.32;;
68315;SDS011;55508;54.368;18.406;2023-11-21T05:23:08;8.90;;;7.47;;
68315;SDS011;55508;54.368;18.406;2023-11-21T05:25:35;11.85;;;8.07;;
68315;SDS011;55508;54.368;18.406;2023-11-21T05:28:06;8.60;;;7.57;;
68315;SDS011;55508;54.368;18.406;2023-11-21T05:30:33;9.95;;;7.30;;
68315;SDS011;55508;54.368;18.406;2023-11-21T05:33:00;9.52;;;7.63;;
68315;SDS011;55508;54.368;18.406;2023-11-21T05:35:27;13.65;;;7.10;;
68315;SDS011;55508;54.368;18.406;2023-11-21T05:37:54;9.63;;;7.78;;
68315;SDS011;55508;54.368;18.406;2023-11-21T05:40:22;10.75;;;6.22;;
68315;SDS011;55508;54.368;18.406;2023-11-21T05:42:49;8.15;;;7.05;;
68315;SDS011;55508;54.368;18.406;2023-11-21T05:45:17;8.95;;;6.38;;
68315;SDS011;55508;54.368;18.406;2023-11-21T05:47:45;6.47;;;5.82;;
68315;SDS011;55508;54.368;18.406;2023-11-21T05:50:14;6.15;;;5.55;;
68315;SDS011;55508;54.368;18.406;2023-11-21T05:52:46;9.32;;;5.32;;
68315;SDS011;55508;54.368;18.406;2023-11-21T05:55:14;5.82;;;5.28;;
68315;SDS011;55508;54.368;18.406;2023-11-21T05:57:41;6.93;;;5.13;;
68315;SDS011;55508;54.368;18.406;2023-11-21T06:00:10;4.93;;;4.53;;
68315;SDS011;55508;54.368;18.406;2023-11-21T06:02:45;4.95;;;4.55;;
68315;SDS011;55508;54.368;18.406;2023-11-21T06:05:12;6.63;;;5.30;;
68315;SDS011;55508;54.368;18.406;2023-11-21T06:07:39;5.40;;;4.90;;
68315;SDS011;55508;54.368;18.406;2023-11-21T06:10:07;5.72;;;5.10;;
68315;SDS011;55508;54.368;18.406;2023-11-21T06:12:39;5.43;;;4.65;;
68315;SDS011;55508;54.368;18.406;2023-11-21T06:15:09;5.53;;;5.03;;
68315;SDS011;55508;54.368;18.406;2023-11-21T06:17:41;5.25;;;4.72;;
68315;SDS011;55508;54.368;18.406;2023-11-21T06:20:09;5.43;;;4.70;;
68315;SDS011;55508;54.368;18.406;2023-11-21T06:22:41;5.43;;;4.95;;
68315;SDS011;55508;54.368;18.406;2023-11-21T06:25:10;4.65;;;4.20;;
68315;SDS011;55508;54.368;18.406;2023-11-21T06:27:40;5.30;;;4.28;;
68315;SDS011;55508;54.368;18.406;2023-11-21T06:30:08;4.30;;;4.00;;
68315;SDS011;55508;54.368;18.406;2023-11-21T06:32:36;3.22;;;2.78;;
68315;SDS011;55508;54.368;18.406;2023-11-21T06:35:04;3.75;;;3.55;;
68315;SDS011;55508;54.368;18.406;2023-11-21T06:37:32;4.47;;;4.07;;
68315;SDS011;55508;54.368;18.406;2023-11-21T06:39:59;6.38;;;3.70;;
68315;SDS011;55508;54.368;18.406;2023-11-21T06:42:27;4.47;;;4.05;;
68315;SDS011;55508;54.368;18.406;2023-11-21T06:44:55;3.72;;;3.25;;
68315;SDS011;55508;54.368;18.406;2023-11-21T06:47:24;3.42;;;2.88;;
68315;SDS011;55508;54.368;18.406;2023-11-21T06:49:52;3.35;;;3.05;;
68315;SDS011;55508;54.368;18.406;2023-11-21T06:52:19;4.00;;;3.70;;
68315;SDS011;55508;54.368;18.406;2023-11-21T06:54:47;4.30;;;3.90;;
68315;SDS011;55508;54.368;18.406;2023-11-21T06:57:16;4.50;;;4.10;;
68315;SDS011;55508;54.368;18.406;2023-11-21T06:59:43;3.97;;;3.67;;
68315;SDS011;55508;54.368;18.406;2023-11-21T07:02:10;4.10;;;3.47;;
68315;SDS011;55508;54.368;18.406;2023-11-21T07:04:38;4.63;;;4.22;;
68315;SDS011;55508;54.368;18.406;2023-11-21T07:07:05;4.40;;;3.85;;
68315;SDS011;55508;54.368;18.406;2023-11-21T07:09:33;4.75;;;4.35;;
68315;SDS011;55508;54.368;18.406;2023-11-21T07:12:01;4.32;;;3.92;;
68315;SDS011;55508;54.368;18.406;2023-11-21T07:14:30;4.18;;;3.78;;
68315;SDS011;55508;54.368;18.406;2023-11-21T07:16:58;4.10;;;2.97;;
68315;SDS011;55508;54.368;18.406;2023-11-21T07:19:25;5.05;;;4.00;;
68315;SDS011;55508;54.368;18.406;2023-11-21T07:21:53;3.88;;;3.42;;
68315;SDS011;55508;54.368;18.406;2023-11-21T07:24:20;4.32;;;3.92;;
68315;SDS011;55508;54.368;18.406;2023-11-21T07:26:51;4.55;;;2.90;;
68315;SDS011;55508;54.368;18.406;2023-11-21T07:29:23;3.65;;;3.35;;
68315;SDS011;55508;54.368;18.406;2023-11-21T07:31:52;3.17;;;2.97;;
68315;SDS011;55508;54.368;18.406;2023-11-21T07:34:20;3.42;;;3.13;;
68315;SDS011;55508;54.368;18.406;2023-11-21T07:36:47;3.30;;;3.10;;
68315;SDS011;55508;54.368;18.406;2023-11-21T07:39:14;3.97;;;3.03;;
68315;SDS011;55508;54.368;18.406;2023-11-21T07:41:45;3.88;;;3.20;;
68315;SDS011;55508;54.368;18.406;2023-11-21T07:44:16;3.20;;;2.80;;
68315;SDS011;55508;54.368;18.406;2023-11-21T07:46:44;3.13;;;2.85;;
68315;SDS011;55508;54.368;18.406;2023-11-21T07:49:12;2.92;;;2.72;;
68315;SDS011;55508;54.368;18.406;2023-11-21T07:51:43;3.95;;;2.95;;
68315;SDS011;55508;54.368;18.406;2023-11-21T07:54:10;1.83;;;1.73;;
68315;SDS011;55508;54.368;18.406;2023-11-21T07:56:38;3.20;;;2.08;;
68315;SDS011;55508;54.368;18.406;2023-11-21T07:59:05;2.75;;;2.55;;
68315;SDS011;55508;54.368;18.406;2023-11-21T08:01:32;2.40;;;2.20;;
68315;SDS011;55508;54.368;18.406;2023-11-21T08:03:59;3.15;;;2.40;;
68315;SDS011;55508;54.368;18.406;2023-11-21T08:06:31;3.20;;;2.90;;
68315;SDS011;55508;54.368;18.406;2023-11-21T08:08:59;2.70;;;2.50;;
68315;SDS011;55508;54.368;18.406;2023-11-21T08:11:26;2.65;;;2.45;;
68315;SDS011;55508;54.368;18.406;2023-11-21T08:13:56;2.15;;;2.00;;
68315;SDS011;55508;54.368;18.406;2023-11-21T08:16:24;2.97;;;2.67;;
68315;SDS011;55508;54.368;18.406;2023-11-21T08:18:51;3.60;;;2.42;;
68315;SDS011;55508;54.368;18.406;2023-11-21T08:21:18;2.05;;;1.95;;
68315;SDS011;55508;54.368;18.406;2023-11-21T08:23:46;2.30;;;2.10;;
68315;SDS011;55508;54.368;18.406;2023-11-21T08:26:15;2.90;;;2.70;;
68315;SDS011;55508;54.368;18.406;2023-11-21T08:28:43;2.72;;;2.33;;
68315;SDS011;55508;54.368;18.406;2023-11-21T08:31:10;3.60;;;2.08;;
68315;SDS011;55508;54.368;18.406;2023-11-21T08:33:39;1.60;;;1.50;;
68315;SDS011;55508;54.368;18.406;2023-11-21T08:36:09;2.67;;;2.47;;
68315;SDS011;55508;54.368;18.406;2023-11-21T08:38:38;2.17;;;2.00;;
68315;SDS011;55508;54.368;18.406;2023-11-21T08:41:06;3.13;;;2.33;;
68315;SDS011;55508;54.368;18.406;2023-11-21T08:43:34;3.17;;;2.88;;
68315;SDS011;55508;54.368;18.406;2023-11-21T08:46:02;2.88;;;2.67;;
68315;SDS011;55508;54.368;18.406;2023-11-21T08:48:29;3.72;;;2.45;;
68315;SDS011;55508;54.368;18.406;2023-11-21T08:50:56;2.75;;;2.22;;
68315;SDS011;55508;54.368;18.406;2023-11-21T08:53:23;3.35;;;2.92;;
68315;SDS011;55508;54.368;18.406;2023-11-21T08:55:52;2.83;;;2.63;;
68315;SDS011;55508;54.368;18.406;2023-11-21T08:58:20;2.35;;;2.15;;
68315;SDS011;55508;54.368;18.406;2023-11-21T09:00:48;1.77;;;1.67;;
68315;SDS011;55508;54.368;18.406;2023-11-21T09:03:15;2.90;;;2.65;;
68315;SDS011;55508;54.368;18.406;2023-11-21T09:05:42;2.20;;;2.00;;
68315;SDS011;55508;54.368;18.406;2023-11-21T09:08:09;1.98;;;1.80;;
68315;SDS011;55508;54.368;18.406;2023-11-21T09:10:36;3.50;;;2.90;;
68315;SDS011;55508;54.368;18.406;2023-11-21T09:13:03;2.63;;;2.42;;
68315;SDS011;55508;54.368;18.406;2023-11-21T09:15:30;4.30;;;2.42;;
68315;SDS011;55508;54.368;18.406;2023-11-21T09:17:57;2.42;;;2.22;;
68315;SDS011;55508;54.368;18.406;2023-11-21T09:20:24;5.13;;;2.60;;
68315;SDS011;55508;54.368;18.406;2023-11-21T09:22:52;2.45;;;1.80;;
68315;SDS011;55508;54.368;18.406;2023-11-21T09:25:19;2.83;;;1.98;;
68315;SDS011;55508;54.368;18.406;2023-11-21T09:27:46;1.23;;;1.13;;
68315;SDS011;55508;54.368;18.406;2023-11-21T09:30:14;1.70;;;1.60;;
68315;SDS011;55508;54.368;18.406;2023-11-21T09:32:41;1.60;;;1.50;;
68315;SDS011;55508;54.368;18.406;2023-11-21T09:35:12;2.28;;;2.17;;
68315;SDS011;55508;54.368;18.406;2023-11-21T09:37:41;1.90;;;1.80;;
68315;SDS011;55508;54.368;18.406;2023-11-21T09:40:11;1.85;;;1.60;;
68315;SDS011;55508;54.368;18.406;2023-11-21T09:42:46;1.90;;;1.80;;
68315;SDS011;55508;54.368;18.406;2023-11-21T09:45:21;2.10;;;1.90;;
68315;SDS011;55508;54.368;18.406;2023-11-21T09:47:53;1.70;;;1.60;;
68315;SDS011;55508;54.368;18.406;2023-11-21T09:50:22;1.60;;;1.50;;
68315;SDS011;55508;54.368;18.406;2023-11-21T09:55:45;1.75;;;1.65;;
68315;SDS011;55508;54.368;18.406;2023-11-21T09:58:14;2.08;;;1.85;;
68315;SDS011;55508;54.368;18.406;2023-11-21T10:00:42;2.40;;;2.20;;
68315;SDS011;55508;54.368;18.406;2023-11-21T10:03:10;2.47;;;2.28;;
68315;SDS011;55508;54.368;18.406;2023-11-21T10:05:38;3.03;;;2.00;;
68315;SDS011;55508;54.368;18.406;2023-11-21T10:08:09;2.40;;;2.20;;
68315;SDS011;55508;54.368;18.406;2023-11-21T10:10:37;3.27;;;2.00;;
68315;SDS011;55508;54.368;18.406;2023-11-21T10:13:15;4.63;;;2.40;;
68315;SDS011;55508;54.368;18.406;2023-11-21T10:15:50;2.33;;;2.17;;
68315;SDS011;55508;54.368;18.406;2023-11-21T10:18:18;1.92;;;1.73;;
68315;SDS011;55508;54.368;18.406;2023-11-21T10:20:46;1.80;;;1.70;;
68315;SDS011;55508;54.368;18.406;2023-11-21T10:23:20;2.70;;;2.05;;
68315;SDS011;55508;54.368;18.406;2023-11-21T10:25:50;2.28;;;2.08;;
68315;SDS011;55508;54.368;18.406;2023-11-21T10:28:19;2.20;;;1.90;;
68315;SDS011;55508;54.368;18.406;2023-11-21T10:30:48;2.33;;;2.03;;
68315;SDS011;55508;54.368;18.406;2023-11-21T10:33:16;2.90;;;1.60;;
68315;SDS011;55508;54.368;18.406;2023-11-21T10:35:44;2.10;;;1.90;;
68315;SDS011;55508;54.368;18.406;2023-11-21T10:38:18;2.85;;;2.65;;
68315;SDS011;55508;54.368;18.406;2023-11-21T10:40:47;2.65;;;2.45;;
68315;SDS011;55508;54.368;18.406;2023-11-21T10:43:16;2.10;;;1.90;;
68315;SDS011;55508;54.368;18.406;2023-11-21T10:45:43;2.42;;;2.22;;
68315;SDS011;55508;54.368;18.406;2023-11-21T10:48:12;2.38;;;2.17;;
68315;SDS011;55508;54.368;18.406;2023-11-21T10:53:12;5.32;;;3.97;;
68315;SDS011;55508;54.368;18.406;2023-11-21T10:55:40;5.13;;;4.18;;
68315;SDS011;55508;54.368;18.406;2023-11-21T10:58:07;3.35;;;2.72;;
68315;SDS011;55508;54.368;18.406;2023-11-21T11:00:37;3.47;;;3.17;;
68315;SDS011;55508;54.368;18.406;2023-11-21T11:03:07;3.22;;;2.92;;
68315;SDS011;55508;54.368;18.406;2023-11-21T11:05:43;2.50;;;2.30;;
68315;SDS011;55508;54.368;18.406;2023-11-21T11:08:21;1.55;;;1.45;;
68315;SDS011;55508;54.368;18.406;2023-11-21T11:10:55;2.85;;;1.70;;
68315;SDS011;55508;54.368;18.406;2023-11-21T11:13:23;2.65;;;2.20;;
68315;SDS011;55508;54.368;18.406;2023-11-21T11:15:51;2.22;;;2.03;;
68315;SDS011;55508;54.368;18.406;2023-11-21T11:18:26;1.80;;;1.70;;
68315;SDS011;55508;54.368;18.406;2023-11-21T11:20:53;2.15;;;1.60;;
68315;SDS011;55508;54.368;18.406;2023-11-21T11:32:03;7.38;;;2.70;;
68315;SDS011;55508;54.368;18.406;2023-11-21T11:34:38;2.88;;;2.67;;
68315;SDS011;55508;54.368;18.406;2023-11-21T11:37:10;3.35;;;2.00;;
68315;SDS011;55508;54.368;18.406;2023-11-21T11:39:38;3.35;;;1.65;;
68315;SDS011;55508;54.368;18.406;2023-11-21T11:42:14;2.15;;;1.92;;
68315;SDS011;55508;54.368;18.406;2023-11-21T11:44:46;1.92;;;1.83;;
68315;SDS011;55508;54.368;18.406;2023-11-21T11:47:23;2.10;;;1.75;;
68315;SDS011;55508;54.368;18.406;2023-11-21T11:52:49;3.10;;;2.72;;
68315;SDS011;55508;54.368;18.406;2023-11-21T11:55:18;3.03;;;2.83;;
68315;SDS011;55508;54.368;18.406;2023-11-21T11:57:47;3.00;;;2.70;;
68315;SDS011;55508;54.368;18.406;2023-11-21T12:00:18;3.33;;;2.80;;
68315;SDS011;55508;54.368;18.406;2023-11-21T12:02:48;3.30;;;3.00;;
68315;SDS011;55508;54.368;18.406;2023-11-21T12:05:21;5.82;;;3.10;;
68315;SDS011;55508;54.368;18.406;2023-11-21T12:07:53;3.50;;;2.60;;
68315;SDS011;55508;54.368;18.406;2023-11-21T12:12:52;6.25;;;3.75;;
68315;SDS011;55508;54.368;18.406;2023-11-21T12:15:22;3.80;;;2.50;;
68315;SDS011;55508;54.368;18.406;2023-11-21T12:17:49;2.55;;;2.35;;
68315;SDS011;55508;54.368;18.406;2023-11-21T12:20:20;2.92;;;2.63;;
68315;SDS011;55508;54.368;18.406;2023-11-21T12:22:49;2.88;;;2.58;;
68315;SDS011;55508;54.368;18.406;2023-11-21T12:25:18;3.63;;;2.75;;
68315;SDS011;55508;54.368;18.406;2023-11-21T12:27:50;2.58;;;2.38;;
68315;SDS011;55508;54.368;18.406;2023-11-21T12:30:19;2.47;;;2.28;;
68315;SDS011;55508;54.368;18.406;2023-11-21T12:32:49;2.92;;;2.65;;
68315;SDS011;55508;54.368;18.406;2023-11-21T12:35:21;3.10;;;2.90;;
68315;SDS011;55508;54.368;18.406;2023-11-21T12:37:50;2.55;;;2.22;;
68315;SDS011;55508;54.368;18.406;2023-11-21T12:40:19;2.10;;;2.00;;
68315;SDS011;55508;54.368;18.406;2023-11-21T12:42:47;2.50;;;2.30;;
68315;SDS011;55508;54.368;18.406;2023-11-21T12:45:20;4.13;;;3.75;;
68315;SDS011;55508;54.368;18.406;2023-11-21T12:47:49;4.82;;;2.70;;
68315;SDS011;55508;54.368;18.406;2023-11-21T12:50:22;2.45;;;2.25;;
68315;SDS011;55508;54.368;18.406;2023-11-21T12:52:50;2.20;;;2.10;;
68315;SDS011;55508;54.368;18.406;2023-11-21T12:55:18;2.05;;;1.85;;
68315;SDS011;55508;54.368;18.406;2023-11-21T12:57:54;2.13;;;1.90;;
68315;SDS011;55508;54.368;18.406;2023-11-21T13:00:29;2.75;;;2.03;;
68315;SDS011;55508;54.368;18.406;2023-11-21T13:02:58;2.95;;;2.17;;
68315;SDS011;55508;54.368;18.406;2023-11-21T13:05:26;3.95;;;3.55;;
68315;SDS011;55508;54.368;18.406;2023-11-21T13:07:55;2.58;;;2.00;;
68315;SDS011;55508;54.368;18.406;2023-11-21T13:10:24;2.65;;;2.42;;
68315;SDS011;55508;54.368;18.406;2023-11-21T13:12:53;2.60;;;2.40;;
68315;SDS011;55508;54.368;18.406;2023-11-21T13:15:24;2.28;;;2.08;;
68315;SDS011;55508;54.368;18.406;2023-11-21T13:17:51;2.30;;;2.10;;
68315;SDS011;55508;54.368;18.406;2023-11-21T13:20:20;2.53;;;2.28;;
68315;SDS011;55508;54.368;18.406;2023-11-21T13:22:56;2.53;;;2.33;;
68315;SDS011;55508;54.368;18.406;2023-11-21T13:25:26;2.88;;;1.63;;
68315;SDS011;55508;54.368;18.406;2023-11-21T13:27:54;2.50;;;2.30;;
68315;SDS011;55508;54.368;18.406;2023-11-21T13:30:22;2.85;;;2.65;;
68315;SDS011;55508;54.368;18.406;2023-11-21T13:33:01;2.40;;;2.15;;
68315;SDS011;55508;54.368;18.406;2023-11-21T13:35:28;3.42;;;2.35;;
68315;SDS011;55508;54.368;18.406;2023-11-21T13:38:05;2.80;;;2.53;;
68315;SDS011;55508;54.368;18.406;2023-11-21T13:40:33;3.65;;;3.00;;
68315;SDS011;55508;54.368;18.406;2023-11-21T13:43:09;4.03;;;2.92;;
68315;SDS011;55508;54.368;18.406;2023-11-21T13:45:37;3.75;;;3.28;;
68315;SDS011;55508;54.368;18.406;2023-11-21T13:48:10;3.30;;;3.00;;
68315;SDS011;55508;54.368;18.406;2023-11-21T13:50:40;2.80;;;2.55;;
68315;SDS011;55508;54.368;18.406;2023-11-21T13:53:15;3.92;;;3.10;;
68315;SDS011;55508;54.368;18.406;2023-11-21T13:55:49;4.10;;;3.10;;
68315;SDS011;55508;54.368;18.406;2023-11-21T13:58:18;3.45;;;3.15;;
68315;SDS011;55508;54.368;18.406;2023-11-21T14:00:59;2.65;;;2.45;;
68315;SDS011;55508;54.368;18.406;2023-11-21T14:03:26;4.20;;;3.42;;
68315;SDS011;55508;54.368;18.406;2023-11-21T14:06:09;9.20;;;5.60;;
68315;SDS011;55508;54.368;18.406;2023-11-21T14:08:42;7.15;;;6.18;;
68315;SDS011;55508;54.368;18.406;2023-11-21T14:11:09;5.25;;;3.70;;
68315;SDS011;55508;54.368;18.406;2023-11-21T14:13:37;3.75;;;3.30;;
68315;SDS011;55508;54.368;18.406;2023-11-21T14:16:06;3.67;;;3.10;;
68315;SDS011;55508;54.368;18.406;2023-11-21T14:18:33;2.83;;;2.28;;
68315;SDS011;55508;54.368;18.406;2023-11-21T14:21:10;3.47;;;2.80;;
68315;SDS011;55508;54.368;18.406;2023-11-21T14:23:37;2.20;;;2.05;;
68315;SDS011;55508;54.368;18.406;2023-11-21T14:26:05;2.13;;;1.92;;
68315;SDS011;55508;54.368;18.406;2023-11-21T14:28:33;4.82;;;2.17;;
68315;SDS011;55508;54.368;18.406;2023-11-21T14:31:02;2.03;;;1.83;;
68315;SDS011;55508;54.368;18.406;2023-11-21T14:33:30;1.80;;;1.67;;
68315;SDS011;55508;54.368;18.406;2023-11-21T14:35:57;3.08;;;1.73;;
68315;SDS011;55508;54.368;18.406;2023-11-21T14:38:24;3.95;;;3.00;;
68315;SDS011;55508;54.368;18.406;2023-11-21T14:40:51;2.70;;;2.50;;
68315;SDS011;55508;54.368;18.406;2023-11-21T14:43:18;2.10;;;1.90;;
68315;SDS011;55508;54.368;18.406;2023-11-21T14:45:46;2.40;;;2.20;;
68315;SDS011;55508;54.368;18.406;2023-11-21T14:48:13;2.33;;;1.80;;
68315;SDS011;55508;54.368;18.406;2023-11-21T14:50:53;2.72;;;2.42;;
68315;SDS011;55508;54.368;18.406;2023-11-21T14:53:40;3.38;;;3.08;;
68315;SDS011;55508;54.368;18.406;2023-11-21T14:56:17;4.80;;;3.88;;
68315;SDS011;55508;54.368;18.406;2023-11-21T14:58:48;6.68;;;3.67;;
68315;SDS011;55508;54.368;18.406;2023-11-21T15:01:15;2.92;;;1.98;;
68315;SDS011;55508;54.368;18.406;2023-11-21T15:03:50;4.45;;;2.58;;
68315;SDS011;55508;54.368;18.406;2023-11-21T15:06:18;2.30;;;2.00;;
68315;SDS011;55508;54.368;18.406;2023-11-21T15:08:56;3.65;;;1.92;;